Time;durP1;ratioP1;P1;durP2;ratioP2;P2;SDS_P1;SDS_P2;PMS_P1;PMS_P2;Temp;Humidity;BMP_temperature;BMP_pressure;BME280_temperature;BME280_humidity;BME280_pressure;Samples;Min_cycle;Max_cycle;Signal;HPM_P1;HPM_P2
2022/05/19 00:04:51;;;;;;;4.97;2.22;;;;;;;23.40;34.09;100758.22;10525629;28;20212;-88
2022/05/19 00:09:53;;;;;;;3.28;1.88;;;;;;;23.22;33.13;100755.38;10508073;28;20651;-88
2022/05/19 00:14:57;;;;;;;3.30;2.08;;;;;;;23.03;33.58;100752.88;10525215;28;20213;-88
2022/05/19 00:19:59;;;;;;;3.75;1.55;;;;;;;23.22;33.45;100751.66;10508745;28;20279;-88
2022/05/19 00:25:02;;;;;;;5.72;2.05;;;;;;;22.66;33.96;100752.47;10507615;28;20248;-88
2022/05/19 00:30:05;;;;;;;7.70;2.20;;;;;;;22.89;33.82;100755.78;10525166;28;20221;-89
2022/05/19 00:35:07;;;;;;;4.55;2.00;;;;;;;23.10;33.08;100747.16;10541524;28;20252;-89
2022/05/19 00:40:10;;;;;;;3.10;1.50;;;;;;;22.74;33.33;100745.50;10527156;28;20222;-87
2022/05/19 00:45:16;;;;;;;3.17;2.00;;;;;;;23.09;32.92;100738.94;10549131;28;20451;-88
2022/05/19 00:50:29;;;;;;;3.58;2.13;;;;;;;22.66;33.60;100733.16;10515239;28;20217;-89
2022/05/19 00:55:39;;;;;;;3.10;1.77;;;;;;;22.89;32.66;100736.50;10532083;28;20234;-88
2022/05/19 01:00:41;;;;;;;3.85;1.60;;;;;;;22.87;33.18;100736.06;10531489;28;20219;-89
2022/05/19 01:05:51;;;;;;;6.18;1.98;;;;;;;22.78;33.31;100732.75;10531572;28;20186;-88
2022/05/19 01:10:53;;;;;;;3.55;2.15;;;;;;;22.57;33.46;100729.06;10531388;28;20178;-87
2022/05/19 01:15:57;;;;;;;2.08;1.60;;;;;;;22.65;33.16;100727.84;10548400;28;20579;-88
2022/05/19 01:20:59;;;;;;;4.68;1.83;;;;;;;22.35;33.19;100729.03;10531492;28;20214;-88
2022/05/19 01:26:35;;;;;;;4.80;2.00;;;;;;;22.85;32.63;100724.16;10530807;28;20227;-87
2022/05/19 01:31:44;;;;;;;3.08;1.65;;;;;;;22.12;33.91;100722.81;10523000;28;20244;-87
2022/05/19 01:36:47;;;;;;;5.20;1.98;;;;;;;22.07;34.20;100709.66;10530349;28;20216;-87
2022/05/19 01:42:07;;;;;;;6.53;1.75;;;;;;;22.08;33.99;100701.88;10530030;28;20630;-88
2022/05/19 01:47:21;;;;;;;2.55;2.00;;;;;;;22.46;33.60;100704.00;10547716;28;20810;-86
2022/05/19 01:52:33;;;;;;;5.40;1.85;;;;;;;22.52;32.92;100705.22;10529174;28;20194;-87
2022/05/19 01:57:39;;;;;;;2.50;1.83;;;;;;;22.64;33.01;100700.34;10532288;28;20206;-88
2022/05/19 02:03:03;;;;;;;7.90;2.00;;;;;;;21.96;34.42;100699.34;10538269;28;20190;-88
2022/05/19 02:08:07;;;;;;;3.58;1.92;;;;;;;22.41;33.25;100698.66;10513386;28;20483;-88
2022/05/19 02:13:10;;;;;;;3.83;2.20;;;;;;;22.27;33.59;100700.66;10545980;28;20537;-89
2022/05/19 02:18:17;;;;;;;1.70;1.50;;;;;;;22.32;33.39;100706.03;10545234;28;20222;-87
2022/05/19 02:23:20;;;;;;;3.38;1.95;;;;;;;21.99;33.71;100692.84;10520733;28;20230;-89
2022/05/19 02:28:44;;;;;;;3.03;1.80;;;;;;;22.01;34.30;100681.75;10529454;28;20647;-88
2022/05/19 02:33:46;;;;;;;6.00;2.00;;;;;;;22.11;33.57;100683.84;10525337;28;20202;-91
2022/05/19 02:38:49;;;;;;;3.35;1.98;;;;;;;21.71;34.64;100682.88;10527427;28;20814;-88
2022/05/19 02:43:52;;;;;;;7.85;2.15;;;;;;;21.60;34.56;100687.72;10544190;28;20198;-89
2022/05/19 02:49:00;;;;;;;2.83;1.65;;;;;;;21.92;34.47;100687.03;10532443;28;20595;-88
2022/05/19 02:54:04;;;;;;;2.08;1.75;;;;;;;21.67;34.68;100687.78;10587991;28;20185;-90
2022/05/19 02:59:06;;;;;;;3.13;2.10;;;;;;;21.82;34.39;100688.66;10548601;28;20222;-88
2022/05/19 03:04:08;;;;;;;4.97;2.15;;;;;;;21.59;34.93;100682.41;10525057;28;20319;-88
2022/05/19 03:09:10;;;;;;;3.50;2.20;;;;;;;21.72;34.69;100695.19;10520009;28;20190;-86
2022/05/19 03:14:12;;;;;;;2.85;1.85;;;;;;;21.67;34.44;100699.25;10533895;28;20487;-85
2022/05/19 03:19:16;;;;;;;4.18;2.03;;;;;;;21.66;34.37;100702.50;10509286;28;20265;-85
2022/05/19 03:24:18;;;;;;;3.20;1.70;;;;;;;21.67;35.20;100712.78;10541648;28;20226;-85
2022/05/19 03:29:20;;;;;;;5.22;2.22;;;;;;;21.54;34.77;100711.47;10525054;28;20263;-86
2022/05/19 03:34:22;;;;;;;2.25;2.00;;;;;;;21.61;35.11;100714.38;10508469;28;20218;-86
2022/05/19 03:39:25;;;;;;;3.88;1.48;;;;;;;21.58;34.63;100710.28;10525343;28;20220;-86
2022/05/19 03:44:27;;;;;;;5.30;2.28;;;;;;;21.73;34.45;100709.09;10508125;28;20182;-87
2022/05/19 03:49:29;;;;;;;3.03;2.00;;;;;;;21.90;34.52;100706.69;10508487;28;20235;-85
2022/05/19 03:54:31;;;;;;;2.75;1.90;;;;;;;22.33;33.32;100714.25;10525001;28;20244;-86
2022/05/19 03:59:34;;;;;;;4.05;2.15;;;;;;;21.86;34.76;100707.50;10525009;28;20206;-86
2022/05/19 04:04:36;;;;;;;3.97;2.03;;;;;;;22.27;34.40;100698.63;10524708;28;20182;-87
2022/05/19 04:09:38;;;;;;;3.45;1.77;;;;;;;22.03;34.57;100702.25;10524522;28;20479;-85
2022/05/19 04:14:40;;;;;;;5.72;2.00;;;;;;;21.68;34.80;100706.63;10549315;28;20194;-86
2022/05/19 04:19:43;;;;;;;3.53;2.20;;;;;;;22.03;34.46;100699.41;10573519;28;20222;-85
2022/05/19 04:24:45;;;;;;;4.35;2.17;;;;;;;21.67;34.86;100710.72;10557432;28;20221;-87
2022/05/19 04:29:48;;;;;;;2.92;1.98;;;;;;;22.07;34.61;100700.22;10556951;28;20247;-87
2022/05/19 04:34:51;;;;;;;9.70;2.35;;;;;;;22.09;33.97;100701.47;10574088;28;20255;-87
2022/05/19 04:39:53;;;;;;;4.35;2.17;;;;;;;22.25;34.23;100706.03;10556633;28;20572;-86
2022/05/19 04:44:55;;;;;;;3.25;2.13;;;;;;;21.69;34.76;100707.44;10556788;28;20197;-86
2022/05/19 04:49:57;;;;;;;3.03;2.00;;;;;;;22.28;33.43;100703.13;10573865;28;20178;-86
2022/05/19 04:55:00;;;;;;;2.80;2.35;;;;;;;22.02;34.63;100697.75;10568279;28;20225;-85
2022/05/19 05:00:12;;;;;;;4.47;2.10;;;;;;;21.88;34.31;100704.22;10531140;28;20219;-86
2022/05/19 05:05:15;;;;;;;3.30;1.95;;;;;;;22.42;33.17;100702.34;10514202;28;20190;-87
2022/05/19 05:10:17;;;;;;;3.88;2.20;;;;;;;22.38;33.41;100702.34;10531021;28;20179;-86
2022/05/19 05:15:20;;;;;;;6.35;4.63;;;;;;;22.06;33.70;100696.53;10513515;28;20663;-84
2022/05/19 05:20:22;;;;;;;3.13;2.42;;;;;;;21.97;33.73;100695.28;10512225;28;20634;-85
2022/05/19 05:25:29;;;;;;;3.13;2.40;;;;;;;21.80;34.07;100686.19;10529227;28;20219;-85
2022/05/19 05:30:32;;;;;;;3.58;1.92;;;;;;;22.37;32.99;100674.88;10530782;28;20205;-86
2022/05/19 05:35:39;;;;;;;3.10;2.75;;;;;;;22.41;33.50;100669.94;10514503;28;20179;-86
2022/05/19 05:40:41;;;;;;;3.05;2.75;;;;;;;22.93;32.39;100670.34;10546624;28;20214;-85
2022/05/19 05:45:44;;;;;;;4.68;3.00;;;;;;;23.21;32.15;100669.50;10529785;28;20640;-85
2022/05/19 05:50:46;;;;;;;3.80;2.33;;;;;;;22.97;32.81;100684.72;10512610;28;20483;-85
2022/05/19 05:55:48;;;;;;;5.55;1.58;;;;;;;23.43;31.89;100679.69;10513008;28;20187;-85
2022/05/19 06:00:51;;;;;;;3.08;1.42;;;;;;;23.58;31.16;100680.47;10512678;28;20600;-85
2022/05/19 06:05:53;;;;;;;3.20;1.63;;;;;;;23.86;32.84;100708.34;10511884;28;20199;-86
2022/05/19 06:10:55;;;;;;;3.63;1.92;;;;;;;22.99;33.71;100775.06;10495679;28;20190;-86
2022/05/19 06:15:58;;;;;;;5.68;1.73;;;;;;;23.75;33.09;100742.94;10528373;28;20191;-86
2022/05/19 06:21:01;;;;;;;2.20;1.88;;;;;;;24.14;31.97;100747.69;10533663;28;20626;-87
2022/05/19 06:26:03;;;;;;;9.15;1.98;;;;;;;23.63;32.99;100736.78;10518514;28;20565;-86
2022/05/19 06:31:06;;;;;;;4.78;1.92;;;;;;;23.82;33.29;100760.16;10511559;28;20191;-86
2022/05/19 06:36:13;;;;;;;4.13;1.85;;;;;;;23.76;32.35;100770.50;10527635;28;20513;-86
2022/05/19 06:46:37;;;;;;;2.53;1.75;;;;;;;24.43;32.53;100778.03;10545136;28;20182;-87
2022/05/19 06:51:40;;;;;;;8.88;2.30;;;;;;;24.71;31.49;100753.13;10528998;28;20527;-86
2022/05/19 06:56:45;;;;;;;3.22;1.65;;;;;;;24.14;32.00;100753.47;10544573;28;20194;-87
2022/05/19 07:01:47;;;;;;;5.57;1.83;;;;;;;23.59;33.91;100768.44;10510123;28;20323;-86
2022/05/19 07:06:50;;;;;;;4.72;2.40;;;;;;;23.88;32.55;100764.28;10526683;28;20252;-87
2022/05/19 07:11:53;;;;;;;4.30;2.28;;;;;;;23.62;33.04;100753.22;10544241;28;20483;-87
2022/05/19 07:16:55;;;;;;;6.13;2.25;;;;;;;24.57;32.00;100759.81;10509395;28;20561;-87
2022/05/19 07:21:58;;;;;;;3.63;2.10;;;;;;;24.62;33.28;100748.66;10525695;28;20222;-86
2022/05/19 07:27:00;;;;;;;4.80;2.03;;;;;;;24.09;32.32;100753.88;10508541;28;20515;-86
2022/05/19 07:32:03;;;;;;;4.88;1.98;;;;;;;24.76;31.65;100758.47;10525946;28;20240;-87
2022/05/19 07:37:06;;;;;;;5.05;1.70;;;;;;;24.86;31.37;100766.19;10525932;28;20244;-87
2022/05/19 07:42:08;;;;;;;2.80;1.30;;;;;;;24.53;31.60;100765.59;10525744;28;20206;-87
2022/05/19 07:47:10;;;;;;;3.55;1.92;;;;;;;24.73;32.61;100765.06;10508837;28;20448;-87
2022/05/19 07:52:13;;;;;;;3.17;1.75;;;;;;;25.49;32.29;100743.81;10524665;28;20244;-86
2022/05/19 07:57:15;;;;;;;4.55;1.65;;;;;;;25.32;29.92;100731.22;10525104;28;20644;-87
2022/05/19 08:02:17;;;;;;;10.93;2.13;;;;;;;24.76;30.90;100727.56;10508477;28;20206;-87
2022/05/19 08:07:20;;;;;;;5.25;1.85;;;;;;;25.39;31.03;100719.56;10541824;28;20186;-86
2022/05/19 08:17:47;;;;;;;3.50;1.75;;;;;;;25.49;33.19;100721.53;10527763;28;20255;-87
2022/05/19 08:22:50;;;;;;;3.22;1.90;;;;;;;24.38;32.06;100715.06;10541136;28;20236;-85
2022/05/19 08:27:57;;;;;;;4.07;1.80;;;;;;;25.58;31.08;100704.53;10491384;28;20268;-86
2022/05/19 08:32:59;;;;;;;4.38;1.77;;;;;;;25.99;30.83;100692.88;10507978;28;20244;-87
2022/05/19 08:38:02;;;;;;;3.10;1.73;;;;;;;25.32;30.68;100696.59;10508370;28;20183;-86
2022/05/19 08:43:06;;;;;;;5.88;1.83;;;;;;;25.16;30.85;100700.00;10524408;28;20228;-86
2022/05/19 08:48:21;;;;;;;2.90;1.40;;;;;;;25.75;30.31;100691.13;10523959;28;20186;-87
2022/05/19 08:53:26;;;;;;;6.57;1.95;;;;;;;26.15;30.45;100692.22;10507878;28;20582;-87
2022/05/19 08:59:05;;;;;;;2.72;1.85;;;;;;;25.83;31.24;100680.31;10524110;28;20200;-87
2022/05/19 09:04:44;;;;;;;3.97;1.92;;;;;;;25.58;30.21;100674.84;10547391;28;20228;-85
2022/05/19 09:10:02;;;;;;;6.65;1.67;;;;;;;25.87;31.06;100660.88;10515371;28;20486;-87
2022/05/19 09:15:08;;;;;;;4.30;2.35;;;;;;;25.20;31.38;100671.97;10513862;28;20664;-86
2022/05/19 09:20:13;;;;;;;3.60;2.10;;;;;;;25.58;30.76;100661.22;10530883;28;20671;-86
2022/05/19 09:25:19;;;;;;;8.05;2.25;;;;;;;25.52;31.51;100665.81;10513375;28;20222;-86
2022/05/19 09:30:32;;;;;;;7.72;2.15;;;;;;;25.78;31.94;100655.63;10530564;28;20206;-86
2022/05/19 09:35:39;;;;;;;3.92;2.13;;;;;;;26.24;30.62;100649.19;10530234;28;20199;-86
2022/05/19 09:40:46;;;;;;;8.05;2.33;;;;;;;26.05;31.24;100642.03;10513421;28;20202;-86
2022/05/19 09:45:50;;;;;;;2.90;1.75;;;;;;;25.70;30.87;100636.75;10513372;28;20579;-86
2022/05/19 09:51:03;;;;;;;4.47;1.90;;;;;;;26.48;29.92;100624.03;10512735;28;20186;-86
2022/05/19 09:56:11;;;;;;;4.10;2.15;;;;;;;25.55;31.26;100623.75;10512504;28;20495;-87
2022/05/19 10:01:17;;;;;;;5.35;2.22;;;;;;;26.34;29.95;100619.31;10512735;28;20676;-85
2022/05/19 10:06:23;;;;;;;3.88;1.60;;;;;;;26.28;29.96;100620.22;10545360;28;20199;-85
2022/05/19 10:11:28;;;;;;;2.63;2.22;;;;;;;25.77;29.80;100607.78;10511874;28;20248;-86
2022/05/19 10:17:09;;;;;;;2.92;2.00;;;;;;;25.72;30.06;100603.31;10528541;28;20201;-85
2022/05/19 10:22:44;;;;;;;7.10;2.05;;;;;;;26.89;28.41;100588.22;10499709;28;20214;-86
2022/05/19 10:33:56;;;;;;;5.22;2.15;;;;;;;27.05;28.45;100565.19;10544546;28;20587;-86
2022/05/19 10:39:19;;;;;;;6.10;1.98;;;;;;;26.93;28.90;100554.22;10509171;28;20194;-86
2022/05/19 10:44:47;;;;;;;6.07;2.10;;;;;;;27.10;29.26;100550.16;10510494;28;20265;-86
2022/05/19 10:50:02;;;;;;;5.28;2.42;;;;;;;27.69;28.68;100540.63;10543981;28;20236;-87
2022/05/19 10:55:18;;;;;;;2.40;1.92;;;;;;;26.84;28.97;100525.91;10510612;28;20207;-86
2022/05/19 11:00:23;;;;;;;2.03;1.92;;;;;;;27.51;28.96;100517.06;10510625;28;20198;-86
2022/05/19 11:05:49;;;;;;;3.10;2.03;;;;;;;28.17;27.63;100508.00;10544374;28;20587;-86
2022/05/19 11:11:18;;;;;;;2.53;1.60;;;;;;;27.43;28.29;100507.72;10526245;28;20247;-86
2022/05/19 11:16:44;;;;;;;5.95;2.10;;;;;;;27.61;28.08;100510.19;10526599;28;20179;-86
2022/05/19 11:22:05;;;;;;;2.35;2.10;;;;;;;27.06;28.58;100511.81;10547934;28;20222;-85
2022/05/19 11:27:30;;;;;;;3.10;2.45;;;;;;;26.91;28.08;100510.50;10489473;28;20219;-86
2022/05/19 11:32:36;;;;;;;2.75;2.03;;;;;;;27.70;27.55;100507.53;10522871;28;20572;-87
2022/05/19 11:38:00;;;;;;;5.20;1.98;;;;;;;27.93;27.70;100504.47;10516594;28;20241;-85
2022/05/19 11:43:14;;;;;;;3.17;2.05;;;;;;;27.60;28.07;100505.66;10501330;28;20481;-86
2022/05/19 11:59:31;;;;;;;2.38;1.88;;;;;;;29.15;26.37;100491.19;10500307;28;20191;-86
2022/05/19 12:04:37;;;;;;;3.40;1.95;;;;;;;30.40;26.03;100479.25;10483237;28;20573;-85
2022/05/19 12:09:45;;;;;;;5.45;2.13;;;;;;;28.46;27.23;100473.31;10484023;28;20187;-86
2022/05/19 12:14:50;;;;;;;5.10;2.47;;;;;;;28.70;28.74;100460.22;10483056;28;20249;-86
2022/05/19 12:19:55;;;;;;;2.33;2.00;;;;;;;28.41;28.51;100462.25;10466584;28;20215;-85
2022/05/19 12:25:01;;;;;;;4.82;2.05;;;;;;;28.61;27.95;100448.44;10518651;28;20222;-85
2022/05/19 12:35:43;;;;;;;3.67;1.83;;;;;;;28.57;27.59;100478.78;10513286;28;20243;-86
2022/05/19 12:40:56;;;;;;;3.30;2.20;;;;;;;28.60;27.54;100443.09;10499544;28;20240;-85
2022/05/19 12:46:02;;;;;;;6.90;2.30;;;;;;;28.34;27.75;100445.06;10532075;28;20197;-86
2022/05/19 12:51:08;;;;;;;4.20;1.70;;;;;;;27.92;27.81;100459.41;10498907;28;20491;-86
2022/05/19 12:56:36;;;;;;;4.95;1.70;;;;;;;28.41;28.05;100439.06;10532100;28;20517;-88
2022/05/19 13:01:50;;;;;;;2.58;1.60;;;;;;;28.55;29.01;100443.63;10514746;28;20267;-86
2022/05/19 13:06:57;;;;;;;4.53;2.25;;;;;;;28.38;27.78;100454.47;10514974;28;20183;-86
2022/05/19 13:12:04;;;;;;;6.07;2.10;;;;;;;28.53;28.26;100460.69;10514677;28;20247;-86
2022/05/19 13:17:12;;;;;;;4.85;1.90;;;;;;;28.51;28.20;100464.03;10514475;28;20249;-85
2022/05/19 13:22:26;;;;;;;3.90;1.88;;;;;;;28.19;28.21;100469.88;10514506;28;20218;-86
2022/05/19 13:33:10;;;;;;;2.25;1.92;;;;;;;28.09;28.93;100481.28;10490830;28;20179;-86
2022/05/19 13:38:18;;;;;;;2.88;2.45;;;;;;;28.27;29.62;100558.28;10471842;28;20202;-86
2022/05/19 13:43:30;;;;;;;21.38;2.80;;;;;;;25.15;32.30;100681.06;10471840;28;20222;-87
2022/05/19 13:48:41;;;;;;;14.90;2.03;;;;;;;23.15;35.50;100741.00;10486806;28;20221;-86
2022/05/19 13:53:56;;;;;;;21.38;1.70;;;;;;;22.11;37.42;100749.88;10505192;28;20199;-85
2022/05/19 13:58:58;;;;;;;15.82;1.27;;;;;;;22.89;37.31;100867.88;10479895;28;20491;-86
2022/05/19 14:04:05;;;;;;;21.50;3.90;;;;;;;21.73;47.03;100904.19;10502583;28;20207;-90
2022/05/19 14:09:38;;;;;;;16.92;3.15;;;;;;;19.73;58.55;100834.41;10469657;28;20211;-89
2022/05/19 14:14:49;;;;;;;20.42;4.57;;;;;;;19.92;62.25;100695.28;10454449;28;20243;-87
2022/05/19 14:19:52;;;;;;;11.57;2.72;;;;;;;20.75;56.38;100572.56;10453947;28;20292;-85
2022/05/19 14:24:59;;;;;;;6.38;2.17;;;;;;;20.15;58.99;100704.56;10504749;28;20223;-85
2022/05/19 14:30:09;;;;;;;7.68;2.70;;;;;;;20.78;56.05;100803.81;10529631;28;20191;-87
2022/05/19 14:35:22;;;;;;;13.13;2.70;;;;;;;21.04;55.24;100789.34;10514365;28;20216;-95
2022/05/19 14:45:54;;;;;;;12.07;2.10;;;;;;;21.08;55.64;100803.72;10513892;28;20537;-85
2022/05/19 14:51:00;;;;;;;10.82;2.33;;;;;;;21.95;54.19;100795.28;10527449;28;20213;-85
2022/05/19 14:56:22;;;;;;;8.82;2.13;;;;;;;21.56;54.57;100801.66;10510069;28;20591;-86
2022/05/19 15:01:24;;;;;;;9.93;3.10;;;;;;;21.09;56.74;100766.03;10524854;28;20444;-89
2022/05/19 15:06:27;;;;;;;9.48;2.45;;;;;;;21.04;55.49;100771.34;10509684;28;20198;-87
2022/05/19 15:11:34;;;;;;;7.18;2.42;;;;;;;21.55;56.24;100793.44;10502745;28;20221;-85
2022/05/19 15:16:36;;;;;;;9.23;2.33;;;;;;;21.76;54.65;100765.69;10513408;28;20257;-86
2022/05/19 15:21:38;;;;;;;4.80;2.67;;;;;;;21.50;55.25;100728.66;10525453;28;20263;-87
2022/05/19 15:35:49;;;;;;;8.73;3.05;;;;;;;17.81;76.15;100781.50;10580416;27;20556;-88
2022/05/19 15:40:52;;;;;;;7.80;3.60;;;;;;;16.50;78.40;100744.09;10520015;28;20240;-87
2022/05/19 15:45:57;;;;;;;8.80;3.97;;;;;;;17.34;76.63;100738.88;10513202;28;20199;-85
2022/05/19 15:51:00;;;;;;;8.82;3.65;;;;;;;17.62;75.85;100765.19;10479442;28;20260;-86
2022/05/19 15:56:02;;;;;;;10.88;3.38;;;;;;;17.08;77.61;100753.72;10480031;28;20592;-86
2022/05/19 16:01:06;;;;;;;10.70;3.22;;;;;;;17.07;77.75;100809.03;10466321;28;20229;-85
2022/05/19 16:06:10;;;;;;;5.55;2.97;;;;;;;17.06;77.28;100783.75;10478628;28;20203;-89
2022/05/19 16:11:13;;;;;;;7.70;2.83;;;;;;;17.17;76.87;100807.66;10493341;28;20561;-84
2022/05/19 16:16:17;;;;;;;5.15;2.50;;;;;;;16.85;75.92;100793.41;10477335;28;20257;-85
2022/05/19 16:21:22;;;;;;;6.05;2.33;;;;;;;17.48;75.35;100783.97;10438532;28;20241;-82
2022/05/19 16:26:24;;;;;;;4.65;2.60;;;;;;;17.08;77.12;100790.75;10439948;28;20216;-87
2022/05/19 16:31:27;;;;;;;4.45;2.50;;;;;;;16.92;78.11;100801.31;10416338;28;20529;-83
2022/05/19 16:36:31;;;;;;;5.70;2.28;;;;;;;16.95;76.16;100796.91;10384512;28;20200;-84
2022/05/19 16:41:35;;;;;;;6.22;2.28;;;;;;;16.84;78.38;100823.06;10386989;28;20204;-84
2022/05/19 16:46:37;;;;;;;4.45;1.88;;;;;;;17.08;75.24;100844.88;10367629;28;20201;-84
2022/05/19 16:51:40;;;;;;;5.32;2.90;;;;;;;17.63;74.94;100840.97;10362508;28;20213;-83
2022/05/19 17:02:05;;;;;;;5.80;2.92;;;;;;;17.69;75.50;100857.78;10360207;28;20605;-87
2022/05/19 17:07:08;;;;;;;5.82;2.65;;;;;;;17.34;73.93;100867.09;10358805;28;20255;-86
2022/05/19 17:12:10;;;;;;;5.95;2.47;;;;;;;17.63;73.08;100866.63;10354480;28;20240;-84
2022/05/19 17:17:13;;;;;;;4.05;2.45;;;;;;;17.36;74.27;100867.56;10370769;28;20197;-85
2022/05/19 17:22:16;;;;;;;7.43;3.08;;;;;;;17.31;74.87;100861.31;10360582;28;20209;-83
2022/05/19 17:27:18;;;;;;;5.20;3.03;;;;;;;17.46;73.65;100872.69;10352539;28;20613;-83
2022/05/19 17:32:21;;;;;;;7.15;3.40;;;;;;;18.10;73.86;100874.19;10350334;28;20636;-83
2022/05/19 17:37:23;;;;;;;5.72;2.35;;;;;;;17.88;71.88;100883.47;10396488;28;20196;-85
2022/05/19 17:42:26;;;;;;;6.82;2.33;;;;;;;18.06;70.91;100876.16;10369819;28;20201;-85
2022/05/19 17:47:30;;;;;;;7.45;2.30;;;;;;;18.20;70.98;100869.94;10413176;28;20250;-84
2022/05/19 17:52:34;;;;;;;5.75;2.53;;;;;;;17.61;71.80;100868.19;10317239;28;20668;-84
2022/05/19 17:57:36;;;;;;;6.20;2.80;;;;;;;17.80;71.38;100882.50;10293417;28;20299;-82
2022/05/19 18:02:39;;;;;;;7.05;2.70;;;;;;;17.62;71.53;100882.06;10294977;28;20199;-83
2022/05/19 18:07:43;;;;;;;4.20;2.45;;;;;;;18.56;70.91;100886.63;10287179;28;20214;-82
2022/05/19 18:12:45;;;;;;;3.78;2.92;;;;;;;18.22;70.10;100893.22;10292994;28;20234;-82
2022/05/19 18:23:10;;;;;;;8.40;3.53;;;;;;;18.09;71.99;100906.78;10294204;28;20202;-83
2022/05/19 18:28:13;;;;;;;6.53;3.25;;;;;;;17.81;72.95;100911.84;10270696;28;20202;-83
2022/05/19 18:33:17;;;;;;;7.78;2.70;;;;;;;17.60;70.46;100929.22;10281728;28;20266;-83
2022/05/19 18:38:20;;;;;;;4.78;2.97;;;;;;;17.08;74.32;100929.47;10286392;28;20197;-85
2022/05/19 18:48:44;;;;;;;9.07;3.08;;;;;;;17.31;70.42;100916.28;10294083;28;20261;-83
2022/05/19 18:53:47;;;;;;;3.97;2.33;;;;;;;17.30;70.92;100922.34;10305043;28;20223;-84
2022/05/19 18:58:51;;;;;;;5.57;3.05;;;;;;;17.07;71.17;100936.38;10270678;28;20261;-84
2022/05/19 19:03:53;;;;;;;8.05;2.85;;;;;;;17.24;71.57;100941.72;10288798;28;20692;-85
2022/05/19 19:08:55;;;;;;;7.18;5.20;;;;;;;17.24;69.74;100939.72;10279941;28;20194;-85
2022/05/19 19:13:58;;;;;;;6.97;2.83;;;;;;;17.24;69.47;100938.88;10296185;28;20214;-84
2022/05/19 19:19:04;;;;;;;6.53;2.97;;;;;;;17.24;69.79;100933.19;10297027;28;20214;-83
2022/05/19 19:24:07;;;;;;;7.68;2.83;;;;;;;17.09;71.05;100928.28;10296974;28;20186;-83
2022/05/19 19:29:11;;;;;;;5.32;2.90;;;;;;;16.74;72.92;100931.78;10279986;28;20253;-85
2022/05/19 19:34:13;;;;;;;5.22;3.00;;;;;;;16.95;71.72;100931.56;10267481;28;20238;-85
2022/05/19 19:39:15;;;;;;;5.68;3.63;;;;;;;16.81;72.23;100931.97;10279583;28;20202;-85
2022/05/19 19:44:18;;;;;;;8.93;3.72;;;;;;;16.51;72.84;100939.25;10295714;28;20186;-84
2022/05/19 19:49:20;;;;;;;3.95;3.30;;;;;;;16.86;72.66;100950.81;10296813;28;20186;-83
2022/05/19 19:54:30;;;;;;;7.82;3.38;;;;;;;16.39;73.97;100950.69;10279090;28;20218;-85
2022/05/19 19:59:35;;;;;;;5.22;4.07;;;;;;;16.08;74.60;100951.31;10295543;28;20208;-83
2022/05/19 20:04:37;;;;;;;7.07;3.45;;;;;;;16.12;74.80;100953.09;10295418;28;20206;-83
2022/05/19 20:09:39;;;;;;;4.60;3.95;;;;;;;16.33;73.95;100950.09;10279281;28;20190;-85
2022/05/19 20:14:43;;;;;;;6.68;3.47;;;;;;;16.20;74.53;100956.97;10295127;28;20210;-84
2022/05/19 20:19:45;;;;;;;8.55;4.10;;;;;;;16.09;73.99;100962.31;10282150;28;20508;-84
2022/05/19 20:24:47;;;;;;;6.45;3.67;;;;;;;16.29;73.47;100956.84;10286001;28;20195;-83
2022/05/19 20:29:49;;;;;;;8.63;4.13;;;;;;;16.62;72.10;100968.03;10302401;28;20195;-84
2022/05/19 20:34:52;;;;;;;6.03;4.07;;;;;;;16.11;74.15;100971.34;10285379;28;20289;-84
2022/05/19 20:39:56;;;;;;;9.38;4.13;;;;;;;16.23;73.75;100961.97;10286179;28;20254;-86
2022/05/19 20:44:58;;;;;;;6.07;4.13;;;;;;;16.21;73.32;100965.16;10287230;28;20202;-83
2022/05/19 20:50:00;;;;;;;6.15;4.45;;;;;;;16.01;74.39;100977.53;10301660;28;20187;-83
2022/05/19 20:55:03;;;;;;;6.72;4.78;;;;;;;16.80;71.63;100978.72;10284895;28;20218;-83
2022/05/19 21:00:07;;;;;;;5.30;4.57;;;;;;;16.48;72.30;100985.50;10285479;28;20191;-84
2022/05/19 21:05:09;;;;;;;6.93;5.00;;;;;;;16.06;74.41;100991.47;10289251;28;20245;-85
2022/05/19 21:10:14;;;;;;;7.20;5.10;;;;;;;16.49;72.85;100996.53;10304352;28;20194;-83
2022/05/19 21:15:16;;;;;;;7.93;5.20;;;;;;;16.04;75.96;101013.75;10284299;28;20780;-83
2022/05/19 21:20:18;;;;;;;6.45;4.88;;;;;;;15.92;74.92;101002.38;10300281;28;20218;-83
2022/05/19 21:30:41;;;;;;;10.52;5.22;;;;;;;16.37;71.88;101041.25;10301040;28;20249;-85
2022/05/19 21:35:44;;;;;;;7.68;5.90;;;;;;;16.74;72.65;101031.41;10299674;28;20278;-85
2022/05/19 21:40:50;;;;;;;10.52;7.82;;;;;;;16.57;72.78;101052.47;10299433;28;20191;-85
2022/05/19 21:45:55;;;;;;;7.90;7.10;;;;;;;16.66;71.05;101054.34;10282948;28;20484;-85
2022/05/19 21:56:23;;;;;;;15.18;7.28;;;;;;;16.81;70.24;101051.56;10272215;28;20231;-85
2022/05/19 22:01:26;;;;;;;11.15;9.05;;;;;;;16.60;71.08;101062.31;10266743;28;20276;-84
2022/05/19 22:11:50;;;;;;;10.70;9.57;;;;;;;16.40;68.74;101063.31;10298635;28;20560;-83
2022/05/19 22:16:52;;;;;;;13.13;8.98;;;;;;;16.02;68.98;101070.13;10299108;28;20210;-84
2022/05/19 22:21:54;;;;;;;17.98;14.07;;;;;;;15.97;67.82;101073.22;10281659;28;20289;-83
2022/05/19 22:26:58;;;;;;;17.90;13.55;;;;;;;15.56;68.59;101084.78;10297799;28;20183;-83
2022/05/19 22:32:01;;;;;;;17.88;15.63;;;;;;;15.59;68.63;101089.75;10297088;28;20230;-84
2022/05/19 22:37:03;;;;;;;18.90;15.23;;;;;;;15.56;68.72;101084.78;10265731;28;20544;-83
2022/05/19 22:42:06;;;;;;;18.30;15.80;;;;;;;15.18;69.93;101088.66;10281014;28;20237;-83
2022/05/19 22:52:30;;;;;;;19.05;16.02;;;;;;;15.61;67.01;101088.22;10283897;28;20249;-82
2022/05/19 22:57:33;;;;;;;17.52;15.68;;;;;;;15.57;68.67;101097.81;10297621;28;20214;-84
2022/05/19 23:02:36;;;;;;;20.33;15.77;;;;;;;15.49;68.05;101097.53;10280749;28;20199;-84
2022/05/19 23:07:38;;;;;;;16.90;14.80;;;;;;;15.53;68.51;101100.50;10263849;28;20245;-83
2022/05/19 23:12:41;;;;;;;20.20;18.13;;;;;;;14.90;71.40;101101.75;10280233;28;20190;-82
2022/05/19 23:17:43;;;;;;;24.52;19.10;;;;;;;15.67;69.64;101094.50;10279398;28;20214;-84
2022/05/19 23:22:46;;;;;;;21.95;19.65;;;;;;;15.89;66.81;101099.75;10279789;28;20257;-82
2022/05/19 23:27:48;;;;;;;33.40;26.02;;;;;;;15.94;66.35;101105.22;10264212;28;20261;-82
2022/05/19 23:38:11;;;;;;;32.30;26.80;;;;;;;15.86;64.99;101117.53;10265520;28;20254;-82
2022/05/19 23:43:13;;;;;;;31.48;25.90;;;;;;;15.76;64.19;101118.78;10294853;28;20198;-83
2022/05/19 23:48:17;;;;;;;28.65;25.58;;;;;;;14.90;66.01;101121.63;10296610;28;20191;-83
2022/05/19 23:53:20;;;;;;;30.38;25.80;;;;;;;14.81;66.01;101116.03;10280617;28;20210;-83
2022/05/19 23:58:22;;;;;;;28.73;25.33;;;;;;;14.71;65.30;101117.25;10272058;28;20186;-82
